Time,TemperatureF,DewpointF,PressureIn,WindDirection,WindDirectionDegrees,WindSpeedMPH,WindSpeedGustMPH,Humidity,HourlyPrecipIn,Conditions,Clouds,dailyrainin,SoftwareType,DateUTC
2013-06-03 05:37:00,57.7,30.9,-100.00,North,-999,0.0,0.0,36,0.00,,,-99.99,FreeWX-Wi 1.01,2013-06-03 12:37:00,
2013-06-03 05:57:00,46.2,35.1,-100.00,North,-999,0.0,0.0,65,0.00,,,-99.99,FreeWX-Wi 1.01,2013-06-03 12:57:00,
2013-06-03 06:02:00,46.4,35.2,-100.00,North,-999,0.0,0.0,65,0.00,,,-99.99,FreeWX-Wi 1.01,2013-06-03 13:02:00,
2013-06-03 06:07:00,46.4,35.2,-100.00,North,-999,0.0,0.0,65,0.00,,,-99.99,FreeWX-Wi 1.01,2013-06-03 13:07:00,
2013-06-03 06:12:00,46.4,35.6,-100.00,North,-999,0.0,0.0,66,0.00,,,-99.99,FreeWX-Wi 1.01,2013-06-03 13:12:00,
2013-06-03 06:17:00,46.8,36.3,-100.00,North,-999,0.0,0.0,67,0.00,,,-99.99,FreeWX-Wi 1.01,2013-06-03 13:17:00,
2013-06-03 06:22:00,47.1,36.7,-100.00,North,-999,0.0,0.0,67,0.00,,,-99.99,FreeWX-Wi 1.01,2013-06-03 13:22:00,
2013-06-03 06:27:00,47.5,37.4,-100.00,North,-999,0.0,0.0,68,0.00,,,-99.99,FreeWX-Wi 1.01,2013-06-03 13:27:00,
2013-06-03 06:32:00,47.7,37.2,-100.00,North,-999,0.0,0.0,67,0.00,,,-99.99,FreeWX-Wi 1.01,2013-06-03 13:32:00,
2013-06-03 06:37:00,47.7,37.2,-100.00,North,-999,0.0,0.0,67,0.00,,,-99.99,FreeWX-Wi 1.01,2013-06-03 13:37:00,
2013-06-03 06:42:00,48.2,37.8,-100.00,North,-999,0.0,0.0,67,0.00,,,-99.99,FreeWX-Wi 1.01,2013-06-03 13:42:00,
2013-06-03 06:47:00,48.6,38.5,-100.00,North,-999,0.0,0.0,68,0.00,,,-99.99,FreeWX-Wi 1.01,2013-06-03 13:47:00,
2013-06-03 06:52:00,49.1,39.0,-100.00,North,-999,0.0,0.0,68,0.00,,,-99.99,FreeWX-Wi 1.01,2013-06-03 13:52:00,
2013-06-03 06:57:00,49.5,39.4,-100.00,North,-999,0.0,0.0,68,0.00,,,-99.99,FreeWX-Wi 1.01,2013-06-03 13:57:00,
2013-06-03 07:02:00,49.8,39.7,-100.00,North,-999,0.0,0.0,68,0.00,,,-99.99,FreeWX-Wi 1.01,2013-06-03 14:02:00,
2013-06-03 07:07:00,50.4,40.3,-100.00,North,-999,0.0,0.0,68,0.00,,,-99.99,FreeWX-Wi 1.01,2013-06-03 14:07:00,
2013-06-03 07:12:00,50.9,40.3,-100.00,North,-999,0.0,0.0,67,0.00,,,-99.99,FreeWX-Wi 1.01,2013-06-03 14:12:00,
2013-06-03 07:17:00,51.3,41.0,-100.00,North,-999,0.0,0.0,68,0.00,,,-99.99,FreeWX-Wi 1.01,2013-06-03 14:17:00,
2013-06-03 07:22:00,51.6,41.0,-100.00,North,-999,0.0,0.0,67,0.00,,,-99.99,FreeWX-Wi 1.01,2013-06-03 14:22:00,
2013-06-03 07:27:00,52.2,39.9,-100.00,North,-999,0.0,0.0,63,0.00,,,-99.99,FreeWX-Wi 1.01,2013-06-03 14:27:00,
2013-06-03 07:32:00,52.9,40.3,-100.00,North,-999,0.0,0.0,62,0.00,,,-99.99,FreeWX-Wi 1.01,2013-06-03 14:32:00,
2013-06-03 07:37:00,53.6,40.5,-100.00,North,-999,0.0,0.0,61,0.00,,,-99.99,FreeWX-Wi 1.01,2013-06-03 14:37:00,
2013-06-03 07:42:00,54.0,37.8,-100.00,North,-999,0.0,0.0,54,0.00,,,-99.99,FreeWX-Wi 1.01,2013-06-03 14:42:00,
2013-06-03 07:47:00,54.5,34.2,-100.00,North,-999,0.0,0.0,46,0.00,,,-99.99,FreeWX-Wi 1.01,2013-06-03 14:47:00,
2013-06-03 07:52:00,55.0,34.7,-100.00,North,-999,0.0,0.0,46,0.00,,,-99.99,FreeWX-Wi 1.01,2013-06-03 14:52:00,
2013-06-03 07:57:00,54.9,31.6,-100.00,North,-999,0.0,0.0,41,0.00,,,-99.99,FreeWX-Wi 1.01,2013-06-03 14:57:00,
2013-06-03 08:02:00,54.9,30.4,-100.00,North,-999,0.0,0.0,39,0.00,,,-99.99,FreeWX-Wi 1.01,2013-06-03 15:02:00,
2013-06-03 08:08:00,55.6,31.1,-100.00,North,-999,0.0,0.0,39,0.00,,,-99.99,FreeWX-Wi 1.01,2013-06-03 15:08:00,
2013-06-03 08:13:00,55.9,30.7,-100.00,North,-999,0.0,0.0,38,0.00,,,-99.99,FreeWX-Wi 1.01,2013-06-03 15:13:00,
2013-06-03 08:18:00,56.7,30.7,-100.00,North,-999,0.0,0.0,37,0.00,,,-99.99,FreeWX-Wi 1.01,2013-06-03 15:18:00,
2013-06-03 08:23:00,57.0,30.4,-100.00,North,-999,0.0,0.0,36,0.00,,,-99.99,FreeWX-Wi 1.01,2013-06-03 15:23:00,
2013-06-03 08:28:00,57.7,30.9,-100.00,North,-999,0.0,0.0,36,0.00,,,-99.99,FreeWX-Wi 1.01,2013-06-03 15:28:00,
2013-06-03 08:33:00,58.1,31.3,-100.00,North,-999,0.0,3.1,36,0.00,,,-99.99,FreeWX-Wi 1.01,2013-06-03 15:33:00,
2013-06-03 08:38:00,57.9,31.1,-100.00,North,-999,0.0,0.0,36,0.00,,,-99.99,FreeWX-Wi 1.01,2013-06-03 15:38:00,
2013-06-03 08:43:00,57.2,30.6,-100.00,North,-999,0.0,0.0,36,0.00,,,-99.99,FreeWX-Wi 1.01,2013-06-03 15:43:00,
2013-06-03 08:48:00,57.0,30.4,-100.00,North,-999,0.0,0.0,36,0.00,,,-99.99,FreeWX-Wi 1.01,2013-06-03 15:48:00,
2013-06-03 08:53:00,56.8,30.2,-100.00,North,-999,0.0,0.0,36,0.00,,,-99.99,FreeWX-Wi 1.01,2013-06-03 15:53:00,
2013-06-03 08:58:00,57.0,30.9,-100.00,North,-999,0.0,0.0,37,0.00,,,-99.99,FreeWX-Wi 1.01,2013-06-03 15:58:00,
2013-06-03 09:03:00,57.2,30.6,-100.00,North,-999,0.0,0.0,36,0.00,,,-99.99,FreeWX-Wi 1.01,2013-06-03 16:03:00,
2013-06-03 09:08:00,57.6,30.7,-100.00,North,-999,0.0,0.0,36,0.00,,,-99.99,FreeWX-Wi 1.01,2013-06-03 16:08:00,
2013-06-03 09:13:00,57.6,30.7,-100.00,North,-999,0.0,0.0,36,0.00,,,-99.99,FreeWX-Wi 1.01,2013-06-03 16:13:00,
2013-06-03 09:18:00,58.1,31.3,-100.00,North,-999,0.0,0.0,36,0.00,,,-99.99,FreeWX-Wi 1.01,2013-06-03 16:18:00,
2013-06-03 09:23:00,58.5,31.6,-100.00,North,-999,0.0,0.0,36,0.00,,,-99.99,FreeWX-Wi 1.01,2013-06-03 16:23:00,
2013-06-03 09:28:00,59.0,31.5,-100.00,North,-999,0.0,2.7,35,0.00,,,-99.99,FreeWX-Wi 1.01,2013-06-03 16:28:00,
2013-06-03 09:33:00,59.0,31.5,-100.00,North,-999,0.0,0.0,35,0.00,,,-99.99,FreeWX-Wi 1.01,2013-06-03 16:33:00,
2013-06-03 09:38:00,60.1,32.4,-100.00,North,-999,0.0,0.0,35,0.00,,,-99.99,FreeWX-Wi 1.01,2013-06-03 16:38:00,
2013-06-03 09:43:00,60.6,32.9,-100.00,North,-999,0.0,0.0,35,0.00,,,-99.99,FreeWX-Wi 1.01,2013-06-03 16:43:00,
2013-06-03 09:48:00,60.8,32.2,-100.00,North,-999,0.0,0.0,34,0.00,,,-99.99,FreeWX-Wi 1.01,2013-06-03 16:48:00,
2013-06-03 09:53:00,62.1,33.4,-100.00,North,-999,0.0,0.0,34,0.00,,,-99.99,FreeWX-Wi 1.01,2013-06-03 16:53:00,
2013-06-03 09:58:00,63.5,34.7,-100.00,North,-999,0.0,0.0,34,0.00,,,-99.99,FreeWX-Wi 1.01,2013-06-03 16:58:00,
2013-06-03 10:03:00,65.5,35.6,-100.00,North,-999,0.0,0.0,33,0.00,,,-99.99,FreeWX-Wi 1.01,2013-06-03 17:03:00,
2013-06-03 10:08:00,65.5,35.6,-100.00,North,-999,0.0,0.0,33,0.00,,,-99.99,FreeWX-Wi 1.01,2013-06-03 17:08:00,
2013-06-03 10:13:00,66.7,36.7,-100.00,North,-999,0.0,0.0,33,0.00,,,-99.99,FreeWX-Wi 1.01,2013-06-03 17:13:00,
2013-06-03 10:18:00,67.3,37.2,-100.00,North,-999,0.0,0.0,33,0.00,,,-99.99,FreeWX-Wi 1.01,2013-06-03 17:18:00,
2013-06-03 10:23:00,67.1,37.0,-100.00,North,-999,0.0,0.0,33,0.00,,,-99.99,FreeWX-Wi 1.01,2013-06-03 17:23:00,
2013-06-03 10:28:00,71.4,40.1,-100.00,North,-999,0.0,0.0,32,0.00,,,-99.99,FreeWX-Wi 1.01,2013-06-03 17:28:00,
2013-06-03 10:33:00,73.9,41.4,-100.00,North,-999,0.0,0.0,31,0.00,,,-99.99,FreeWX-Wi 1.01,2013-06-03 17:33:00,
2013-06-03 10:38:00,72.5,41.0,-100.00,North,-999,0.0,0.0,32,0.00,,,-99.99,FreeWX-Wi 1.01,2013-06-03 17:38:00,
2013-06-03 10:43:00,75.6,42.8,-100.00,North,-999,0.0,0.0,31,0.00,,,-99.99,FreeWX-Wi 1.01,2013-06-03 17:43:00,
2013-06-03 10:48:00,74.5,41.9,-100.00,North,-999,0.0,0.0,31,0.00,,,-99.99,FreeWX-Wi 1.01,2013-06-03 17:48:00,
2013-06-03 10:53:00,73.8,41.2,-100.00,North,-999,0.0,0.0,31,0.00,,,-99.99,FreeWX-Wi 1.01,2013-06-03 17:53:00,
2013-06-03 10:58:00,74.3,41.7,-100.00,North,-999,0.0,0.0,31,0.00,,,-99.99,FreeWX-Wi 1.01,2013-06-03 17:58:00,
2013-06-03 11:03:00,75.9,43.2,-100.00,North,-999,0.0,0.0,31,0.00,,,-99.99,FreeWX-Wi 1.01,2013-06-03 18:03:00,
2013-06-03 11:08:00,77.0,44.1,-100.00,North,-999,0.0,0.0,31,0.00,,,-99.99,FreeWX-Wi 1.01,2013-06-03 18:08:00,
2013-06-03 11:13:00,77.4,44.4,-100.00,North,-999,0.0,0.0,31,0.00,,,-99.99,FreeWX-Wi 1.01,2013-06-03 18:13:00,
2013-06-03 11:18:00,71.4,40.1,-100.00,North,-999,0.0,0.0,32,0.00,,,-99.99,FreeWX-Wi 1.01,2013-06-03 18:18:00,
2013-06-03 11:23:00,76.6,43.7,-100.00,North,-999,0.0,0.0,31,0.00,,,-99.99,FreeWX-Wi 1.01,2013-06-03 18:23:00,
2013-06-03 11:28:00,77.5,44.4,-100.00,North,-999,0.0,0.0,31,0.00,,,-99.99,FreeWX-Wi 1.01,2013-06-03 18:28:00,
2013-06-03 11:33:00,75.9,43.2,-100.00,North,-999,0.0,0.0,31,0.00,,,-99.99,FreeWX-Wi 1.01,2013-06-03 18:33:00,
2013-06-03 11:38:00,76.3,43.3,-100.00,North,-999,0.0,0.0,31,0.00,,,-99.99,FreeWX-Wi 1.01,2013-06-03 18:38:00,
2013-06-03 11:43:00,77.2,44.2,-100.00,North,-999,0.0,0.0,31,0.00,,,-99.99,FreeWX-Wi 1.01,2013-06-03 18:43:00,
2013-06-03 11:48:00,75.4,42.6,-100.00,North,-999,0.0,0.0,31,0.00,,,-99.99,FreeWX-Wi 1.01,2013-06-03 18:48:00,
2013-06-03 11:53:00,77.2,44.2,-100.00,North,-999,0.0,0.0,31,0.00,,,-99.99,FreeWX-Wi 1.01,2013-06-03 18:53:00,
2013-06-03 11:58:00,76.5,43.5,-100.00,North,-999,0.0,0.0,31,0.00,,,-99.99,FreeWX-Wi 1.01,2013-06-03 18:58:00,
2013-06-03 12:03:00,78.1,45.0,-100.00,North,-999,0.0,0.0,31,0.00,,,-99.99,FreeWX-Wi 1.01,2013-06-03 19:03:00,
2013-06-03 12:08:00,79.0,45.0,-100.00,North,-999,0.0,0.0,30,0.00,,,-99.99,FreeWX-Wi 1.01,2013-06-03 19:08:00,
2013-06-03 12:13:00,79.2,45.0,-100.00,North,-999,0.0,0.0,30,0.00,,,-99.99,FreeWX-Wi 1.01,2013-06-03 19:13:00,
2013-06-03 12:18:00,75.4,42.6,-100.00,North,-999,0.0,0.0,31,0.00,,,-99.99,FreeWX-Wi 1.01,2013-06-03 19:18:00,
2013-06-03 12:23:00,77.0,44.1,-100.00,North,-999,0.0,0.0,31,0.00,,,-99.99,FreeWX-Wi 1.01,2013-06-03 19:23:00,
2013-06-03 12:29:00,79.2,45.0,-100.00,North,-999,0.0,0.0,30,0.00,,,-99.99,FreeWX-Wi 1.01,2013-06-03 19:29:00,
2013-06-03 12:34:00,81.0,46.6,-100.00,North,-999,0.0,0.0,30,0.00,,,-99.99,FreeWX-Wi 1.01,2013-06-03 19:34:00,
2013-06-03 12:39:00,81.3,46.9,-100.00,North,-999,0.0,0.0,30,0.00,,,-99.99,FreeWX-Wi 1.01,2013-06-03 19:39:00,
2013-06-03 12:44:00,80.8,46.4,-100.00,North,-999,0.0,0.0,30,0.00,,,-99.99,FreeWX-Wi 1.01,2013-06-03 19:44:00,
2013-06-03 12:49:00,79.0,45.0,-100.00,North,-999,0.0,0.0,30,0.00,,,-99.99,FreeWX-Wi 1.01,2013-06-03 19:49:00,
2013-06-03 12:54:00,78.3,45.1,-100.00,North,-999,0.0,0.0,31,0.00,,,-99.99,FreeWX-Wi 1.01,2013-06-03 19:54:00,
2013-06-03 12:59:00,82.4,46.9,-100.00,North,-999,0.0,0.0,29,0.00,,,-99.99,FreeWX-Wi 1.01,2013-06-03 19:59:00,
2013-06-03 13:04:00,82.0,47.5,-100.00,North,-999,0.0,0.0,30,0.00,,,-99.99,FreeWX-Wi 1.01,2013-06-03 20:04:00,
2013-06-03 13:09:00,82.2,47.7,-100.00,North,-999,0.0,0.0,30,0.00,,,-99.99,FreeWX-Wi 1.01,2013-06-03 20:09:00,
2013-06-03 13:14:00,82.6,47.1,-100.00,North,-999,0.0,0.0,29,0.00,,,-99.99,FreeWX-Wi 1.01,2013-06-03 20:14:00,
2013-06-03 13:19:00,81.5,47.1,-100.00,North,-999,0.0,0.0,30,0.00,,,-99.99,FreeWX-Wi 1.01,2013-06-03 20:19:00,
2013-06-03 13:24:00,83.5,47.8,-100.00,North,-999,0.0,0.0,29,0.00,,,-99.99,FreeWX-Wi 1.01,2013-06-03 20:24:00,
2013-06-03 13:29:00,84.0,48.4,-100.00,North,-999,0.0,0.0,29,0.00,,,-99.99,FreeWX-Wi 1.01,2013-06-03 20:29:00,
2013-06-03 13:34:00,84.6,48.7,-100.00,North,-999,0.0,0.0,29,0.00,,,-99.99,FreeWX-Wi 1.01,2013-06-03 20:34:00,
2013-06-03 13:39:00,85.1,49.3,-100.00,North,-999,0.0,0.0,29,0.00,,,-99.99,FreeWX-Wi 1.01,2013-06-03 20:39:00,
2013-06-03 13:44:00,82.2,47.7,-100.00,North,-999,0.0,0.0,30,0.00,,,-99.99,FreeWX-Wi 1.01,2013-06-03 20:44:00,
2013-06-03 13:49:00,84.0,48.4,-100.00,North,-999,0.0,0.0,29,0.00,,,-99.99,FreeWX-Wi 1.01,2013-06-03 20:49:00,
2013-06-03 13:54:00,83.7,48.0,-100.00,North,-999,0.0,0.0,29,0.00,,,-99.99,FreeWX-Wi 1.01,2013-06-03 20:54:00,
2013-06-03 13:59:00,83.5,47.8,-100.00,North,-999,0.0,0.0,29,0.00,,,-99.99,FreeWX-Wi 1.01,2013-06-03 20:59:00,
2013-06-03 14:04:00,82.9,47.3,-100.00,North,-999,0.0,0.0,29,0.00,,,-99.99,FreeWX-Wi 1.01,2013-06-03 21:04:00,
2013-06-03 14:09:00,84.6,48.7,-100.00,North,-999,0.0,0.0,29,0.00,,,-99.99,FreeWX-Wi 1.01,2013-06-03 21:09:00,
2013-06-03 14:14:00,85.3,49.5,-100.00,North,-999,0.0,0.0,29,0.00,,,-99.99,FreeWX-Wi 1.01,2013-06-03 21:14:00,
2013-06-03 14:19:00,85.1,49.3,-100.00,North,-999,0.0,0.0,29,0.00,,,-99.99,FreeWX-Wi 1.01,2013-06-03 21:19:00,
2013-06-03 14:24:00,84.0,48.4,-100.00,North,-999,0.0,0.0,29,0.00,,,-99.99,FreeWX-Wi 1.01,2013-06-03 21:24:00,
2013-06-03 14:29:00,84.2,48.4,-100.00,North,-999,0.0,0.0,29,0.00,,,-99.99,FreeWX-Wi 1.01,2013-06-03 21:29:00,
2013-06-03 14:34:00,84.6,48.7,-100.00,North,-999,0.0,0.0,29,0.00,,,-99.99,FreeWX-Wi 1.01,2013-06-03 21:34:00,
2013-06-03 14:39:00,85.8,49.8,-100.00,North,-999,0.0,0.0,29,0.00,,,-99.99,FreeWX-Wi 1.01,2013-06-03 21:39:00,
2013-06-03 14:44:00,87.1,50.9,-100.00,North,-999,0.0,0.0,29,0.00,,,-99.99,FreeWX-Wi 1.01,2013-06-03 21:44:00,
2013-06-03 14:49:00,87.1,50.9,-100.00,North,-999,0.0,0.0,29,0.00,,,-99.99,FreeWX-Wi 1.01,2013-06-03 21:49:00,
2013-06-03 14:54:00,86.2,50.2,-100.00,North,-999,0.0,0.0,29,0.00,,,-99.99,FreeWX-Wi 1.01,2013-06-03 21:54:00,
2013-06-03 14:59:00,86.9,50.7,-100.00,North,-999,0.0,0.0,29,0.00,,,-99.99,FreeWX-Wi 1.01,2013-06-03 21:59:00,
2013-06-03 15:05:00,84.6,48.7,-100.00,North,-999,0.0,0.0,29,0.00,,,-99.99,FreeWX-Wi 1.01,2013-06-03 22:05:00,
2013-06-03 15:10:00,86.0,50.0,-100.00,North,-999,0.0,0.0,29,0.00,,,-99.99,FreeWX-Wi 1.01,2013-06-03 22:10:00,
2013-06-03 15:15:00,84.6,48.7,-100.00,North,-999,0.0,0.0,29,0.00,,,-99.99,FreeWX-Wi 1.01,2013-06-03 22:15:00,
2013-06-03 15:20:00,86.2,50.2,-100.00,North,-999,0.0,0.0,29,0.00,,,-99.99,FreeWX-Wi 1.01,2013-06-03 22:20:00,
2013-06-03 15:25:00,86.7,50.5,-100.00,North,-999,0.0,0.0,29,0.00,,,-99.99,FreeWX-Wi 1.01,2013-06-03 22:25:00,
2013-06-03 15:30:00,86.9,50.7,-100.00,North,-999,0.0,0.0,29,0.00,,,-99.99,FreeWX-Wi 1.01,2013-06-03 22:30:00,
2013-06-03 15:35:00,84.6,48.7,-100.00,North,-999,0.0,0.0,29,0.00,,,-99.99,FreeWX-Wi 1.01,2013-06-03 22:35:00,
2013-06-03 15:40:00,84.7,48.9,-100.00,North,-999,0.0,0.0,29,0.00,,,-99.99,FreeWX-Wi 1.01,2013-06-03 22:40:00,
2013-06-03 15:45:00,85.1,49.3,-100.00,North,-999,0.0,0.0,29,0.00,,,-99.99,FreeWX-Wi 1.01,2013-06-03 22:45:00,
2013-06-03 15:50:00,85.5,49.5,-100.00,North,-999,0.0,0.0,29,0.00,,,-99.99,FreeWX-Wi 1.01,2013-06-03 22:50:00,
2013-06-03 15:55:00,86.7,50.5,-100.00,North,-999,0.0,0.0,29,0.00,,,-99.99,FreeWX-Wi 1.01,2013-06-03 22:55:00,
2013-06-03 16:00:00,86.9,50.7,-100.00,North,-999,0.0,0.0,29,0.00,,,-99.99,FreeWX-Wi 1.01,2013-06-03 23:00:00,
2013-06-03 16:05:00,87.6,51.4,-100.00,North,-999,0.0,0.0,29,0.00,,,-99.99,FreeWX-Wi 1.01,2013-06-03 23:05:00,
2013-06-03 16:10:00,86.7,50.5,-100.00,North,-999,0.0,0.0,29,0.00,,,-99.99,FreeWX-Wi 1.01,2013-06-03 23:10:00,
2013-06-03 16:15:00,86.0,50.0,-100.00,North,-999,0.0,0.0,29,0.00,,,-99.99,FreeWX-Wi 1.01,2013-06-03 23:15:00,
2013-06-03 16:20:00,85.1,49.3,-100.00,North,-999,0.0,0.0,29,0.00,,,-99.99,FreeWX-Wi 1.01,2013-06-03 23:20:00,
2013-06-03 16:25:00,83.8,48.2,-100.00,North,-999,0.0,0.0,29,0.00,,,-99.99,FreeWX-Wi 1.01,2013-06-03 23:25:00,
2013-06-03 16:30:00,84.0,48.4,-100.00,North,-999,0.0,0.0,29,0.00,,,-99.99,FreeWX-Wi 1.01,2013-06-03 23:30:00,
2013-06-03 16:35:00,83.1,47.5,-100.00,North,-999,0.0,0.0,29,0.00,,,-99.99,FreeWX-Wi 1.01,2013-06-03 23:35:00,
2013-06-03 16:40:00,78.1,45.0,-100.00,North,-999,0.0,0.0,31,0.00,,,-99.99,FreeWX-Wi 1.01,2013-06-03 23:40:00,
2013-06-03 16:45:00,75.7,43.0,-100.00,North,-999,0.0,0.0,31,0.00,,,-99.99,FreeWX-Wi 1.01,2013-06-03 23:45:00,
2013-06-03 16:50:00,74.1,41.5,-100.00,North,-999,0.0,0.0,31,0.00,,,-99.99,FreeWX-Wi 1.01,2013-06-03 23:50:00,
2013-06-03 16:55:00,73.4,41.0,-100.00,North,-999,0.0,0.0,31,0.00,,,-99.99,FreeWX-Wi 1.01,2013-06-03 23:55:00,
2013-06-03 17:00:00,72.3,40.8,-100.00,North,-999,0.0,0.0,32,0.00,,,-99.99,FreeWX-Wi 1.01,2013-06-04 00:00:00,
2013-06-03 17:05:00,72.0,40.5,-100.00,North,-999,0.0,0.0,32,0.00,,,-99.99,FreeWX-Wi 1.01,2013-06-04 00:05:00,
2013-06-03 17:10:00,72.1,40.6,-100.00,North,-999,0.0,0.0,32,0.00,,,-99.99,FreeWX-Wi 1.01,2013-06-04 00:10:00,
2013-06-03 17:15:00,71.8,40.3,-100.00,North,-999,0.0,0.0,32,0.00,,,-99.99,FreeWX-Wi 1.01,2013-06-04 00:15:00,
2013-06-03 17:20:00,71.6,40.1,-100.00,North,-999,0.0,0.0,32,0.00,,,-99.99,FreeWX-Wi 1.01,2013-06-04 00:20:00,
2013-06-03 17:25:00,72.3,40.8,-100.00,North,-999,0.0,0.0,32,0.00,,,-99.99,FreeWX-Wi 1.01,2013-06-04 00:25:00,
2013-06-03 17:30:00,72.1,40.6,-100.00,North,-999,0.0,0.0,32,0.00,,,-99.99,FreeWX-Wi 1.01,2013-06-04 00:30:00,
2013-06-03 17:35:00,72.0,40.5,-100.00,North,-999,0.0,0.0,32,0.00,,,-99.99,FreeWX-Wi 1.01,2013-06-04 00:35:00,
2013-06-03 17:40:00,72.3,40.8,-100.00,North,-999,0.0,0.0,32,0.00,,,-99.99,FreeWX-Wi 1.01,2013-06-04 00:40:00,
2013-06-03 17:45:00,78.3,45.1,-100.00,North,-999,0.0,0.0,31,0.00,,,-99.99,FreeWX-Wi 1.01,2013-06-04 00:45:00,
2013-06-03 17:50:00,82.2,47.7,-100.00,North,-999,0.0,0.0,30,0.00,,,-99.99,FreeWX-Wi 1.01,2013-06-04 00:50:00,
2013-06-03 17:55:00,83.8,48.2,-100.00,North,-999,0.0,0.0,29,0.00,,,-99.99,FreeWX-Wi 1.01,2013-06-04 00:55:00,
2013-06-03 18:00:00,83.8,48.2,-100.00,North,-999,0.0,0.0,29,0.00,,,-99.99,FreeWX-Wi 1.01,2013-06-04 01:00:00,
2013-06-03 18:05:00,84.6,48.7,-100.00,North,-999,0.0,0.0,29,0.00,,,-99.99,FreeWX-Wi 1.01,2013-06-04 01:05:00,
2013-06-03 18:10:00,84.0,48.4,-100.00,North,-999,0.0,0.0,29,0.00,,,-99.99,FreeWX-Wi 1.01,2013-06-04 01:10:00,
2013-06-03 18:15:00,82.2,47.7,-100.00,North,-999,0.0,0.0,30,0.00,,,-99.99,FreeWX-Wi 1.01,2013-06-04 01:15:00,
2013-06-03 18:20:00,80.6,46.2,-100.00,North,-999,0.0,0.0,30,0.00,,,-99.99,FreeWX-Wi 1.01,2013-06-04 01:20:00,
2013-06-03 18:25:00,76.6,43.7,-100.00,North,-999,0.0,0.0,31,0.00,,,-99.99,FreeWX-Wi 1.01,2013-06-04 01:25:00,
2013-06-03 18:30:00,74.5,41.9,-100.00,North,-999,0.0,0.0,31,0.00,,,-99.99,FreeWX-Wi 1.01,2013-06-04 01:30:00,
2013-06-03 18:35:00,72.0,40.5,-100.00,North,-999,0.0,0.0,32,0.00,,,-99.99,FreeWX-Wi 1.01,2013-06-04 01:35:00,
2013-06-03 18:40:00,70.9,39.6,-100.00,North,-999,0.0,0.0,32,0.00,,,-99.99,FreeWX-Wi 1.01,2013-06-04 01:40:00,
2013-06-03 18:45:00,70.0,38.8,-100.00,North,-999,0.0,0.0,32,0.00,,,-99.99,FreeWX-Wi 1.01,2013-06-04 01:45:00,
2013-06-03 18:50:00,70.0,38.8,-100.00,North,-999,0.0,0.0,32,0.00,,,-99.99,FreeWX-Wi 1.01,2013-06-04 01:50:00,
2013-06-03 18:55:00,69.4,39.0,-100.00,North,-999,0.0,0.0,33,0.00,,,-99.99,FreeWX-Wi 1.01,2013-06-04 01:55:00,
2013-06-03 19:00:00,68.9,38.7,-100.00,North,-999,0.0,0.0,33,0.00,,,-99.99,FreeWX-Wi 1.01,2013-06-04 02:00:00,
2013-06-03 19:05:00,68.5,38.3,-100.00,North,-999,0.0,0.0,33,0.00,,,-99.99,FreeWX-Wi 1.01,2013-06-04 02:05:00,
2013-06-03 19:10:00,68.2,37.9,-100.00,North,-999,0.0,0.0,33,0.00,,,-99.99,FreeWX-Wi 1.01,2013-06-04 02:10:00,
2013-06-03 19:15:00,67.5,37.4,-100.00,North,-999,0.0,0.0,33,0.00,,,-99.99,FreeWX-Wi 1.01,2013-06-04 02:15:00,
2013-06-03 19:20:00,67.3,37.2,-100.00,North,-999,0.0,0.0,33,0.00,,,-99.99,FreeWX-Wi 1.01,2013-06-04 02:20:00,
2013-06-03 19:25:00,67.3,37.2,-100.00,North,-999,0.0,0.0,33,0.00,,,-99.99,FreeWX-Wi 1.01,2013-06-04 02:25:00,
2013-06-03 19:31:00,66.9,36.9,-100.00,North,-999,0.0,0.0,33,0.00,,,-99.99,FreeWX-Wi 1.01,2013-06-04 02:31:00,
2013-06-03 19:36:00,66.7,36.7,-100.00,North,-999,0.0,0.0,33,0.00,,,-99.99,FreeWX-Wi 1.01,2013-06-04 02:36:00,
2013-06-03 19:41:00,66.7,36.7,-100.00,North,-999,0.0,0.0,33,0.00,,,-99.99,FreeWX-Wi 1.01,2013-06-04 02:41:00,
2013-06-03 19:46:00,66.7,36.7,-100.00,North,-999,0.0,0.0,33,0.00,,,-99.99,FreeWX-Wi 1.01,2013-06-04 02:46:00,
2013-06-03 19:51:00,66.6,36.5,-100.00,North,-999,0.0,0.0,33,0.00,,,-99.99,FreeWX-Wi 1.01,2013-06-04 02:51:00,
2013-06-03 19:56:00,66.2,36.3,-100.00,North,-999,0.0,0.0,33,0.00,,,-99.99,FreeWX-Wi 1.01,2013-06-04 02:56:00,
2013-06-03 20:01:00,65.8,36.0,-100.00,North,-999,0.0,0.0,33,0.00,,,-99.99,FreeWX-Wi 1.01,2013-06-04 03:01:00,
2013-06-03 20:06:00,65.7,35.8,-100.00,North,-999,0.0,0.0,33,0.00,,,-99.99,FreeWX-Wi 1.01,2013-06-04 03:06:00,
2013-06-03 20:11:00,65.1,35.2,-100.00,North,-999,0.0,0.0,33,0.00,,,-99.99,FreeWX-Wi 1.01,2013-06-04 03:11:00,
2013-06-03 20:16:00,64.8,35.1,-100.00,North,-999,0.0,0.0,33,0.00,,,-99.99,FreeWX-Wi 1.01,2013-06-04 03:16:00,
2013-06-03 20:21:00,64.4,34.7,-100.00,North,-999,0.0,0.0,33,0.00,,,-99.99,FreeWX-Wi 1.01,2013-06-04 03:21:00,
2013-06-03 20:26:00,64.0,35.1,-100.00,North,-999,0.0,0.0,34,0.00,,,-99.99,FreeWX-Wi 1.01,2013-06-04 03:26:00,
2013-06-03 20:31:00,63.5,34.7,-100.00,North,-999,0.0,0.0,34,0.00,,,-99.99,FreeWX-Wi 1.01,2013-06-04 03:31:00,
2013-06-03 20:36:00,63.0,34.2,-100.00,North,-999,0.0,0.0,34,0.00,,,-99.99,FreeWX-Wi 1.01,2013-06-04 03:36:00,
2013-06-03 20:41:00,62.8,34.0,-100.00,North,-999,0.0,0.0,34,0.00,,,-99.99,FreeWX-Wi 1.01,2013-06-04 03:41:00,
2013-06-03 20:46:00,62.4,33.6,-100.00,North,-999,0.0,0.0,34,0.00,,,-99.99,FreeWX-Wi 1.01,2013-06-04 03:46:00,
2013-06-03 20:56:00,62.1,33.4,-100.00,North,-999,0.0,0.0,34,0.00,,,-99.99,FreeWX-Wi 1.01,2013-06-04 03:56:00,